createdAt,value
2023-03-01T00:02:14.557Z,22.15
2023-03-01T00:05:16.026Z,23.42
2023-03-01T00:08:17.469Z,25.52
2023-03-01T00:11:24.967Z,24.05
2023-03-01T00:14:26.722Z,27.35
2023-03-01T00:17:28.716Z,24.38
2023-03-01T00:20:30.191Z,25.90
2023-03-01T00:23:32.653Z,27.48
2023-03-01T00:26:34.217Z,26.60
2023-03-01T00:29:35.737Z,24.23
2023-03-01T00:32:37.236Z,24.25
2023-03-01T00:35:38.905Z,24.42
2023-03-01T00:38:43.887Z,22.92
2023-03-01T00:41:45.560Z,26.48
2023-03-01T00:44:47.040Z,31.40
2023-03-01T00:47:50.041Z,25.88
2023-03-01T00:50:51.516Z,28.13
2023-03-01T00:53:56.075Z,26.58
2023-03-01T00:56:57.514Z,24.60
2023-03-01T00:59:59.082Z,25.45
2023-03-01T01:03:00.886Z,24.52
2023-03-01T01:06:09.993Z,25.20
2023-03-01T01:09:17.967Z,26.25
2023-03-01T01:12:19.509Z,26.08
2023-03-01T01:15:20.993Z,29.85
2023-03-01T01:18:22.468Z,25.58
2023-03-01T01:21:25.560Z,25.88
2023-03-01T01:24:27.029Z,30.03
2023-03-01T01:27:28.569Z,27.98
2023-03-01T01:30:30.077Z,29.40
2023-03-01T01:33:32.405Z,30.00
2023-03-01T01:36:35.391Z,29.02
2023-03-01T01:39:36.942Z,28.83
2023-03-01T01:42:38.556Z,27.77
2023-03-01T01:45:40.522Z,29.15
2023-03-01T01:48:49.583Z,28.50
2023-03-01T01:51:56.867Z,28.52
2023-03-01T01:55:06.945Z,29.75
2023-03-01T01:58:11.914Z,29.25
2023-03-01T02:01:13.584Z,27.33
2023-03-01T02:04:15.036Z,29.42
2023-03-01T02:07:22.587Z,28.58
2023-03-01T02:10:25.504Z,28.98
2023-03-01T02:13:27.716Z,28.05
2023-03-01T02:16:30.815Z,28.67
2023-03-01T02:19:45.856Z,29.75
2023-03-01T02:22:48.091Z,28.80
2023-03-01T02:25:59.205Z,33.22
2023-03-01T02:29:00.801Z,31.30
2023-03-01T02:32:05.169Z,30.27
2023-03-01T02:35:07.407Z,27.88
2023-03-01T02:38:10.121Z,29.15
2023-03-01T02:41:15.852Z,31.45
2023-03-01T02:44:17.827Z,31.55
2023-03-01T02:47:19.249Z,29.98
2023-03-01T02:50:23.684Z,30.58
2023-03-01T02:53:40.334Z,31.55
2023-03-01T02:56:44.045Z,27.75
2023-03-01T02:59:45.641Z,31.80
2023-03-01T03:02:50.016Z,30.02
2023-03-01T03:05:57.202Z,28.88
2023-03-01T03:08:59.243Z,28.70
2023-03-01T03:12:00.820Z,34.75
2023-03-01T03:15:02.694Z,29.17
2023-03-01T03:18:06.935Z,28.70
2023-03-01T03:21:13.416Z,28.95
2023-03-01T03:24:14.918Z,29.45
2023-03-01T03:27:16.382Z,29.35
2023-03-01T03:30:20.049Z,28.15
2023-03-01T03:33:21.523Z,29.95
2023-03-01T03:36:24.920Z,31.98
2023-03-01T03:39:28.160Z,30.58
2023-03-01T03:42:29.751Z,31.38
2023-03-01T03:45:34.304Z,33.60
2023-03-01T03:48:38.638Z,31.23
2023-03-01T03:54:41.826Z,30.45
2023-03-01T03:57:43.686Z,30.38
2023-03-01T04:00:45.736Z,33.55
2023-03-01T04:03:55.215Z,29.98
2023-03-01T04:06:56.719Z,29.13
2023-03-01T04:09:58.198Z,31.30
2023-03-01T04:12:59.752Z,30.77
2023-03-01T04:16:01.268Z,27.73
2023-03-01T04:19:02.864Z,25.35
2023-03-01T04:22:10.185Z,28.38
2023-03-01T04:25:14.977Z,32.38
2023-03-01T04:28:17.095Z,29.75
2023-03-01T04:31:22.164Z,28.85
2023-03-01T04:34:23.969Z,30.45
2023-03-01T04:37:26.202Z,32.88
2023-03-01T04:40:28.283Z,31.90
2023-03-01T04:43:29.927Z,32.80
2023-03-01T04:46:31.665Z,31.13
2023-03-01T04:49:33.304Z,31.52
2023-03-01T04:52:35.125Z,36.20
2023-03-01T04:55:36.842Z,32.13
2023-03-01T04:58:38.465Z,31.30
2023-03-01T05:01:39.951Z,32.70
2023-03-01T05:04:41.593Z,32.63
2023-03-01T05:07:43.108Z,32.63
2023-03-01T05:10:47.340Z,35.25
2023-03-01T05:16:52.271Z,32.83
2023-03-01T05:19:55.917Z,36.88
2023-03-01T05:23:00.366Z,33.50
2023-03-01T05:26:05.367Z,35.25
2023-03-01T05:29:09.447Z,32.08
2023-03-01T05:32:15.591Z,36.77
2023-03-01T05:35:18.889Z,34.65
2023-03-01T05:38:21.600Z,33.47
2023-03-01T05:41:23.031Z,31.92
2023-03-01T05:44:25.228Z,32.65
2023-03-01T05:47:26.679Z,32.38
2023-03-01T05:50:30.840Z,34.65
2023-03-01T05:56:35.241Z,32.97
2023-03-01T05:59:36.701Z,35.33
2023-03-01T06:02:38.850Z,32.70
2023-03-01T06:05:41.243Z,31.98
2023-03-01T06:08:42.807Z,33.05
2023-03-01T06:11:44.922Z,31.20
2023-03-01T06:14:48.291Z,30.30
2023-03-01T06:17:50.272Z,29.98
2023-03-01T06:20:55.921Z,33.75
2023-03-01T06:23:57.413Z,30.35
2023-03-01T06:26:58.866Z,34.15
2023-03-01T06:30:00.309Z,32.95
2023-03-01T06:33:03.128Z,34.38
2023-03-01T06:36:04.984Z,32.28
2023-03-01T06:39:06.675Z,30.33
2023-03-01T06:42:11.012Z,33.50
2023-03-01T06:45:12.800Z,30.08
2023-03-01T06:48:14.232Z,33.75
2023-03-01T06:51:15.796Z,34.42
2023-03-01T06:54:18.747Z,30.33
2023-03-01T06:57:20.204Z,31.67
2023-03-01T07:00:22.098Z,31.52
2023-03-01T07:03:23.888Z,29.52
2023-03-01T07:06:25.406Z,31.13
2023-03-01T07:09:26.981Z,32.30
2023-03-01T07:12:28.436Z,30.23
2023-03-01T07:15:29.951Z,31.83
2023-03-01T07:18:31.444Z,31.25
2023-03-01T07:21:33.072Z,41.28
2023-03-01T07:24:34.909Z,33.13
2023-03-01T07:27:36.952Z,29.65
2023-03-01T07:30:38.468Z,30.50
2023-03-01T07:33:39.984Z,28.98
2023-03-01T07:36:44.039Z,31.90
2023-03-01T07:39:45.598Z,34.47
2023-03-01T07:42:47.069Z,30.92
2023-03-01T07:45:55.789Z,30.90
2023-03-01T07:48:58.942Z,30.05
2023-03-01T07:52:00.553Z,28.38
2023-03-01T07:55:02.020Z,34.58
2023-03-01T07:58:04.016Z,30.40
2023-03-01T08:01:08.138Z,32.88
2023-03-01T08:07:11.168Z,32.72
2023-03-01T08:10:12.658Z,25.70
2023-03-01T08:13:14.129Z,33.05
2023-03-01T08:16:16.800Z,28.98
2023-03-01T08:19:19.069Z,24.75
2023-03-01T08:22:20.642Z,27.50
2023-03-01T08:25:22.131Z,27.23
2023-03-01T08:28:23.553Z,25.60
2023-03-01T08:31:29.749Z,29.90
2023-03-01T08:34:32.441Z,30.85
2023-03-01T08:37:34.158Z,37.22
2023-03-01T08:40:35.624Z,27.80
2023-03-01T08:43:37.100Z,27.38
2023-03-01T08:46:41.457Z,35.50
2023-03-01T08:49:42.998Z,29.30
2023-03-01T08:52:44.537Z,28.20
2023-03-01T08:55:46.262Z,31.05
2023-03-01T08:58:49.627Z,26.50
2023-03-01T09:01:51.190Z,25.97
2023-03-01T09:04:52.674Z,28.25
2023-03-01T09:07:54.183Z,31.15
2023-03-01T09:10:55.875Z,24.55
2023-03-01T09:13:57.398Z,29.77
2023-03-01T09:16:58.967Z,23.27
2023-03-01T09:20:00.628Z,24.08
2023-03-01T09:23:02.370Z,26.48
2023-03-01T09:26:04.359Z,28.13
2023-03-01T09:29:05.907Z,28.45
2023-03-01T09:32:09.121Z,28.83
2023-03-01T09:35:10.680Z,24.27
2023-03-01T09:38:12.592Z,26.52
2023-03-01T09:41:26.299Z,24.27
2023-03-01T09:44:46.415Z,23.52
2023-03-01T09:47:49.501Z,23.08
2023-03-01T09:50:52.516Z,32.72
2023-03-01T09:53:55.611Z,21.88
2023-03-01T09:57:12.527Z,26.60
2023-03-01T10:00:29.357Z,24.45
2023-03-01T10:03:50.195Z,27.55
2023-03-01T10:07:15.203Z,24.25
2023-03-01T10:10:27.965Z,37.92
2023-03-01T10:13:37.200Z,25.42
2023-03-01T10:16:49.211Z,23.88
2023-03-01T10:19:50.752Z,28.35
2023-03-01T10:22:56.390Z,25.80
2023-03-01T10:25:57.941Z,25.70
2023-03-01T10:29:11.372Z,25.38
2023-03-01T10:32:13.280Z,22.63
2023-03-01T10:35:23.043Z,22.65
2023-03-01T10:38:24.776Z,22.25
2023-03-01T10:41:29.453Z,23.52
2023-03-01T10:44:40.224Z,23.23
2023-03-01T10:47:41.711Z,24.65
2023-03-01T10:50:49.245Z,24.63
2023-03-01T10:53:52.698Z,25.40
2023-03-01T10:56:57.189Z,24.52
2023-03-01T11:00:25.875Z,24.85
2023-03-01T11:03:38.868Z,28.08
2023-03-01T11:06:42.326Z,22.95
2023-03-01T11:09:43.806Z,30.83
2023-03-01T11:12:45.245Z,28.63
2023-03-01T11:16:08.639Z,26.10
2023-03-01T11:19:10.165Z,25.00
2023-03-01T11:22:21.077Z,26.35
2023-03-01T11:25:28.753Z,27.30
2023-03-01T11:28:31.245Z,25.05
2023-03-01T11:31:34.580Z,25.10
2023-03-01T11:34:52.590Z,26.17
2023-03-01T11:38:03.017Z,26.38
2023-03-01T11:41:20.548Z,25.63
2023-03-01T11:44:29.107Z,24.20
2023-03-01T11:47:40.206Z,23.42
2023-03-01T11:50:49.365Z,23.33
2023-03-01T11:54:15.340Z,21.70
2023-03-01T11:57:44.285Z,22.48
2023-03-01T12:00:45.931Z,22.15
2023-03-01T12:04:23.043Z,21.42
2023-03-01T12:07:42.512Z,24.55
2023-03-01T12:11:15.007Z,26.75
2023-03-01T12:14:50.249Z,21.17
2023-03-01T12:18:25.444Z,22.35
2023-03-01T12:21:54.415Z,22.23
2023-03-01T12:25:14.388Z,20.67
2023-03-01T12:28:18.782Z,22.92
2023-03-01T12:31:44.918Z,21.48
2023-03-01T12:34:56.652Z,21.48
2023-03-01T12:38:19.362Z,23.90
2023-03-01T12:41:39.641Z,30.23
2023-03-01T12:44:52.626Z,22.48
2023-03-01T12:47:59.919Z,26.13
2023-03-01T12:51:06.450Z,22.17
2023-03-01T12:54:16.854Z,24.35
2023-03-01T12:57:47.021Z,25.05
2023-03-01T13:01:20.655Z,23.25
2023-03-01T13:04:59.340Z,26.65
2023-03-01T13:08:03.716Z,26.02
2023-03-01T13:11:12.930Z,23.80
2023-03-01T13:14:26.391Z,25.42
2023-03-01T13:17:34.427Z,25.70
2023-03-01T13:20:48.128Z,27.20
2023-03-01T13:23:49.663Z,27.00
2023-03-01T13:27:25.791Z,26.02
2023-03-01T13:30:36.603Z,26.23
2023-03-01T13:33:46.874Z,25.17
2023-03-01T13:36:50.595Z,25.63
2023-03-01T13:39:52.913Z,30.88
2023-03-01T13:43:05.281Z,22.70
2023-03-01T13:46:21.515Z,22.02
2023-03-01T13:49:31.512Z,24.35
2023-03-01T13:52:45.629Z,23.70
2023-03-01T13:55:57.003Z,24.52
2023-03-01T13:58:59.056Z,21.20
2023-03-01T14:02:01.900Z,25.08
2023-03-01T14:05:03.980Z,24.67
2023-03-01T14:08:18.461Z,25.35
2023-03-01T14:14:43.041Z,25.00
2023-03-01T14:17:54.206Z,24.13
2023-03-01T14:20:55.719Z,22.85
2023-03-01T14:23:58.585Z,21.67
2023-03-01T14:27:02.508Z,26.65
2023-03-01T14:30:13.953Z,22.13
2023-03-01T14:33:25.546Z,26.73
2023-03-01T14:36:30.315Z,27.23
2023-03-01T14:39:33.233Z,25.65
2023-03-01T14:42:37.134Z,22.02
2023-03-01T14:45:38.673Z,23.63
2023-03-01T14:48:40.353Z,23.77
2023-03-01T14:51:47.415Z,25.08
2023-03-01T14:54:52.643Z,23.75
2023-03-01T14:57:54.649Z,21.80
2023-03-01T15:01:00.430Z,23.80
2023-03-01T15:04:03.258Z,23.77
2023-03-01T15:07:06.070Z,23.52
2023-03-01T15:10:18.146Z,24.45
2023-03-01T15:13:25.877Z,21.63
2023-03-01T15:16:31.536Z,23.17
2023-03-01T15:19:33.255Z,20.92
2023-03-01T15:22:36.192Z,23.33
2023-03-01T15:25:39.582Z,26.45
2023-03-01T15:28:44.373Z,23.23
2023-03-01T15:31:57.019Z,26.05
2023-03-01T15:34:59.943Z,22.42
2023-03-01T15:38:02.495Z,26.38
2023-03-01T15:41:22.591Z,24.02
2023-03-01T15:44:42.655Z,24.15
2023-03-01T15:47:51.048Z,24.55
2023-03-01T15:51:00.608Z,24.80
2023-03-01T15:54:11.845Z,23.65
2023-03-01T15:57:15.878Z,27.20
2023-03-01T16:03:22.341Z,28.38
2023-03-01T16:06:23.795Z,23.75
2023-03-01T16:09:26.757Z,22.95
2023-03-01T16:12:31.092Z,27.00
2023-03-01T16:15:37.380Z,28.08
2023-03-01T16:18:39.695Z,31.42
2023-03-01T16:21:43.171Z,32.08
2023-03-01T16:24:54.800Z,33.05
2023-03-01T16:28:09.888Z,34.75
2023-03-01T16:31:12.853Z,32.47
2023-03-01T16:34:14.933Z,36.10
2023-03-01T16:37:17.235Z,37.22
2023-03-01T16:40:25.214Z,37.08
2023-03-01T16:43:26.849Z,33.55
2023-03-01T16:46:29.899Z,36.45
2023-03-01T16:49:31.367Z,37.17
2023-03-01T16:52:34.779Z,34.78
2023-03-01T16:55:37.292Z,32.75
2023-03-01T16:58:40.206Z,35.83
2023-03-01T17:01:42.374Z,36.83
2023-03-01T17:04:43.852Z,38.75
2023-03-01T17:07:45.393Z,41.45
2023-03-01T17:10:46.884Z,38.92
2023-03-01T17:13:48.981Z,40.83
2023-03-01T17:16:50.478Z,38.40
2023-03-01T17:19:52.019Z,34.15
2023-03-01T17:22:53.514Z,41.60
2023-03-01T17:25:55.843Z,39.33
2023-03-01T17:28:59.110Z,37.92
2023-03-01T17:32:01.030Z,39.77
2023-03-01T17:35:02.694Z,39.70
2023-03-01T17:38:05.567Z,37.97
2023-03-01T17:41:07.373Z,43.45
2023-03-01T17:44:09.430Z,40.67
2023-03-01T17:47:11.099Z,38.90
2023-03-01T17:50:12.652Z,60.47
2023-03-01T17:53:14.385Z,38.20
2023-03-01T17:56:17.598Z,40.58
2023-03-01T17:59:19.194Z,65.40
2023-03-01T18:02:20.894Z,42.03
2023-03-01T18:05:22.380Z,38.97
2023-03-01T18:08:23.956Z,40.80
2023-03-01T18:11:25.804Z,37.70
2023-03-01T18:14:29.795Z,39.53
2023-03-01T18:17:31.371Z,39.35
2023-03-01T18:20:34.298Z,49.53
2023-03-01T18:23:36.803Z,42.42
2023-03-01T18:26:39.919Z,42.53
2023-03-01T18:29:41.771Z,38.95
2023-03-01T18:32:44.929Z,36.65
2023-03-01T18:35:46.657Z,34.45
2023-03-01T18:38:48.831Z,31.45
2023-03-01T18:41:50.694Z,33.42
2023-03-01T18:44:53.797Z,35.88
2023-03-01T18:47:55.565Z,39.17
2023-03-01T18:50:58.082Z,40.90
2023-03-01T18:53:59.685Z,43.83
2023-03-01T18:57:01.310Z,35.90
2023-03-01T19:00:04.488Z,38.97
2023-03-01T19:03:05.986Z,41.83
2023-03-01T19:06:07.505Z,39.15
2023-03-01T19:09:09.362Z,37.97
2023-03-01T19:12:10.860Z,36.60
2023-03-01T19:15:13.700Z,40.33
2023-03-01T19:18:15.204Z,44.42
2023-03-01T19:21:22.125Z,40.60
2023-03-01T19:24:23.557Z,41.17
2023-03-01T19:27:25.140Z,36.22
2023-03-01T19:30:27.288Z,38.05
2023-03-01T19:33:30.245Z,34.90
2023-03-01T19:36:35.092Z,38.58
2023-03-01T19:39:36.619Z,38.58
2023-03-01T19:42:38.058Z,37.03
2023-03-01T19:45:39.608Z,36.20
2023-03-01T19:48:41.529Z,33.60
2023-03-01T19:51:43.219Z,34.40
2023-03-01T19:54:45.810Z,34.35
2023-03-01T19:57:47.275Z,39.40
2023-03-01T20:00:49.049Z,36.53
2023-03-01T20:03:50.539Z,36.00
2023-03-01T20:06:52.142Z,34.95
2023-03-01T20:09:53.751Z,38.53
2023-03-01T20:12:55.289Z,32.80
2023-03-01T20:15:56.860Z,34.53
2023-03-01T20:19:00.580Z,36.63
2023-03-01T20:22:03.375Z,33.13
2023-03-01T20:25:05.778Z,40.30
2023-03-01T20:28:07.313Z,39.47
2023-03-01T20:31:11.071Z,33.53
2023-03-01T20:34:12.662Z,36.15
2023-03-01T20:37:14.346Z,33.50
2023-03-01T20:40:16.120Z,36.85
2023-03-01T20:43:17.605Z,35.80
2023-03-01T20:46:19.360Z,34.33
2023-03-01T20:49:21.626Z,38.58
2023-03-01T20:52:23.280Z,31.83
2023-03-01T20:55:27.174Z,38.40
2023-03-01T20:58:32.825Z,40.00
2023-03-01T21:01:38.562Z,43.15
2023-03-01T21:04:40.204Z,39.10
2023-03-01T21:07:42.774Z,39.78
2023-03-01T21:10:50.043Z,39.80
2023-03-01T21:13:55.181Z,41.30
2023-03-01T21:16:56.693Z,36.67
2023-03-01T21:19:58.144Z,38.70
2023-03-01T21:22:59.638Z,37.05
2023-03-01T21:26:06.998Z,38.25
2023-03-01T21:29:19.493Z,39.53
2023-03-01T21:32:21.160Z,47.53
2023-03-01T21:35:23.568Z,46.08
2023-03-01T21:38:25.049Z,48.05
2023-03-01T21:41:29.497Z,45.20
2023-03-01T21:44:32.768Z,42.15
2023-03-01T21:47:35.945Z,42.33
2023-03-01T21:50:37.363Z,42.58
2023-03-01T21:53:38.809Z,37.25
2023-03-01T21:56:40.947Z,41.55
2023-03-01T21:59:42.402Z,40.42
2023-03-01T22:02:44.031Z,38.75
2023-03-01T22:05:58.217Z,41.85
2023-03-01T22:09:04.516Z,41.42
2023-03-01T22:12:06.494Z,47.28
2023-03-01T22:15:08.630Z,43.60
2023-03-01T22:18:12.075Z,41.15
2023-03-01T22:21:13.832Z,41.35
2023-03-01T22:24:16.376Z,44.50
2023-03-01T22:27:17.835Z,40.80
2023-03-01T22:30:19.320Z,39.90
2023-03-01T22:33:21.140Z,43.78
2023-03-01T22:36:23.106Z,42.10
2023-03-01T22:39:24.670Z,41.47
2023-03-01T22:42:26.158Z,42.92
2023-03-01T22:45:32.323Z,44.92
2023-03-01T22:48:33.907Z,39.78
2023-03-01T22:51:37.672Z,41.63
2023-03-01T22:54:39.151Z,42.75
2023-03-01T22:57:40.610Z,41.55
2023-03-01T23:00:42.097Z,41.35
2023-03-01T23:03:44.231Z,40.58
2023-03-01T23:06:55.634Z,42.03
2023-03-01T23:10:02.105Z,39.92
2023-03-01T23:13:03.597Z,40.85
2023-03-01T23:16:05.554Z,41.92
2023-03-01T23:19:07.065Z,36.00
2023-03-01T23:22:08.630Z,40.67
2023-03-01T23:25:13.092Z,42.63
2023-03-01T23:28:14.570Z,41.70
2023-03-01T23:31:16.630Z,38.85
2023-03-01T23:34:19.210Z,42.50
2023-03-01T23:37:20.730Z,43.95
2023-03-01T23:40:22.227Z,38.78
2023-03-01T23:43:23.719Z,37.35
2023-03-01T23:46:27.847Z,41.70
2023-03-01T23:52:38.457Z,42.00
2023-03-01T23:55:44.984Z,39.05
2023-03-01T23:58:46.451Z,43.05
